This is the latest recevied weather packets stored in our database for station/object W1REE. If no packets are shown the sender has not sent any weather packets the latest 10 day(s).
| Time | Temp. | Humidity | Pressure | Rain* | Wind** | Luminosity | Snow |
|---|---|---|---|---|---|---|---|
| 1777498773 | 8.33° C | 73% | 1020.5 hPa | 0 mm | - | 231 W/m² | - |
| 1777498469 | 8.89° C | 73% | 1020.4 hPa | 0 mm | - | 87 W/m² | - |
| 1777498166 | 8.89° C | 69% | 1020.4 hPa | 0 mm | - | 47 W/m² | - |
| 1777497863 | 8.89° C | 68% | 1020.5 hPa | 0 mm | - | 46 W/m² | - |
| 1777497560 | 9.44° C | 65% | 1020.2 hPa | 0 mm | - | 55 W/m² | - |
| 1777497255 | 9.44° C | 64% | 1020.4 hPa | 0 mm | - | 81 W/m² | - |
| 1777496952 | 10° C | 62% | 1020.5 hPa | 0 mm | - | 142 W/m² | - |
| 1777496650 | 10° C | 62% | 1020.2 hPa | 0 mm | - | 200 W/m² | - |
| 1777496346 | 10° C | 65% | 1020.4 hPa | 0 mm | - | 300 W/m² | - |
| 1777496042 | 10.56° C | 58% | 1020.5 hPa | 0 mm | - | 371 W/m² | - |
| 1777495738 | 10° C | 61% | 1020.6 hPa | 0 mm | - | 395 W/m² | - |
| 1777495434 | 10° C | 66% | 1020.5 hPa | 0 mm | - | 436 W/m² | - |
| 1777495130 | 10.56° C | 62% | 1020.5 hPa | 0 mm | - | 405 W/m² | - |
| 1777494828 | 9.44° C | 62% | 1020.7 hPa | 0 mm | - | 1110 W/m² | - |
| 1777494525 | 9.44° C | 67% | 1020.7 hPa | 0 mm | - | 1165 W/m² | - |
| 1777494222 | 9.44° C | 68% | 1020.8 hPa | 0 mm | - | 853 W/m² | - |
| 1777493919 | 8.89° C | 76% | 1020.7 hPa | 0 mm | - | 1271 W/m² | - |
| 1777493617 | 7.78° C | 83% | 1020.7 hPa | 0 mm | - | 1342 W/m² | - |
| 1777493315 | 6.11° C | 90% | 1020.7 hPa | 0 mm | - | 1195 W/m² | - |
| 1777493011 | 6.11° C | 89% | 1020.6 hPa | 1.27 mm | - | 223 W/m² | - |
| 1777492707 | 6.11° C | 88% | 1020.4 hPa | 3.05 mm | - | 75 W/m² | - |
| 1777492407 | 6.67° C | 85% | 1020.7 hPa | 1.78 mm | - | 39 W/m² | - |
| 1777492106 | 6.67° C | 82% | 1021.2 hPa | 0 mm | - | 24 W/m² | - |
| 1777491802 | 7.22° C | 79% | 1021.6 hPa | 0 mm | - | 33 W/m² | - |
| 1777491498 | 7.78° C | 79% | 1021.4 hPa | 0 mm | - | 65 W/m² | - |
* Rain latest hour (hover to see other rain measurements)
** Current wind speed in m/s (hover to see current wind gust speed)